»·PEaware :: N210AR KCMA-KEMT

N210AR :: KCMA-KEMT

FLIGHT INFORMATION

Flight Status: Arrived
Operator: Privately registered:
United States
More flights under this callsign
Pilot: Max S. (16657)
Aircraft: CESSNA 172 SKYHAWK
(C172)
More flights by this aircraft type
Origin: KCMA Camarillo
United States
Destination: KEMT El Monte
United States
More flights between these airports :: More routes between these airports
Route: +
File this flight plan on PilotEdge
Remarks:
Altitude:
(Current/Filed)
3,500ft
Speed:
(Current/Filed)
100kts
Departed: 22-Sep-20 08:27 AM
Arrived: 22-Sep-20 09:01 AM
Distance/Time
Traveled:
53nm/0:34
Distance/Time
To Go:
Arrived

Flight Plot

Page will automatically refresh every two minutes.

Flight plan parsing failed; only flown route is shown


Map Options




Map Legend


Flown Route
Filed Route
Departure Airport
Arrival Airport
Navaid (VOR, NDB)
Fix

Horizontal Profiles

Position Reports

Time Latitude Longitude Heading Altitude Ground
Speed
22-Sep-20 08:02 34.210293 -119.089787 275 71ft 0kts
22-Sep-20 08:03 34.210293 -119.089788 275 71ft 0kts
22-Sep-20 08:04 34.210293 -119.089788 275 71ft 0kts
22-Sep-20 08:05 34.210293 -119.089788 275 71ft 0kts
22-Sep-20 08:06 34.210293 -119.089788 275 71ft 0kts
22-Sep-20 08:07 34.210293 -119.089788 275 71ft 0kts
22-Sep-20 08:08 34.210293 -119.089788 275 71ft 0kts
22-Sep-20 08:09 34.210293 -119.089788 275 71ft 0kts
22-Sep-20 08:10 34.210293 -119.089788 275 71ft 0kts
22-Sep-20 08:13 34.210293 -119.089787 275 71ft 0kts
22-Sep-20 08:15 34.210293 -119.089788 275 71ft 0kts
22-Sep-20 08:15 34.210293 -119.089788 275 71ft 0kts
22-Sep-20 08:16 34.210293 -119.089787 275 71ft 0kts
22-Sep-20 08:17 34.210293 -119.089788 275 71ft 0kts
22-Sep-20 08:18 34.210293 -119.089787 275 71ft 0kts
22-Sep-20 08:19 34.210293 -119.089787 275 71ft 0kts
22-Sep-20 08:20 34.210293 -119.089787 275 71ft 0kts
22-Sep-20 08:21 34.210307 -119.089836 299 71ft 2kts
22-Sep-20 08:22 34.210974 -119.087275 88 75ft 18kts
22-Sep-20 08:23 34.212281 -119.084564 359 79ft 10kts
22-Sep-20 08:24 34.212695 -119.084564 1 80ft 0kts
22-Sep-20 08:25 34.212786 -119.084563 0 80ft 4kts
22-Sep-20 08:26 34.213494 -119.096088 273 242ft 75kts
22-Sep-20 08:27 34.207336 -119.116454 174 1094ft 65kts
22-Sep-20 08:28 34.199421 -119.096034 84 1727ft 81kts
22-Sep-20 08:29 34.196688 -119.068824 102 2503ft 81kts
22-Sep-20 08:30 34.193447 -119.041424 98 3227ft 83kts
22-Sep-20 08:31 34.190144 -119.011591 97 3582ft 110kts
22-Sep-20 08:32 34.187363 -118.978727 97 3538ft 118kts
22-Sep-20 08:33 34.183088 -118.947404 97 3504ft 117kts
22-Sep-20 08:34 34.182298 -118.915621 94 3505ft 114kts
22-Sep-20 08:35 34.176649 -118.884613 101 3497ft 112kts
22-Sep-20 08:36 34.172068 -118.853266 100 3514ft 111kts
22-Sep-20 08:37 34.169163 -118.821239 97 3537ft 111kts
22-Sep-20 08:38 34.165263 -118.788454 106 3555ft 111kts
22-Sep-20 08:39 34.160703 -118.751516 90 3569ft 111kts
22-Sep-20 08:40 34.159656 -118.710821 100 3581ft 112kts
22-Sep-20 08:41 34.154654 -118.662179 93 3609ft 113kts
22-Sep-20 08:42 34.149483 -118.618767 96 3622ft 114kts
22-Sep-20 08:43 34.143351 -118.579479 97 3505ft 119kts
22-Sep-20 08:44 34.140786 -118.539925 85 3480ft 116kts
22-Sep-20 08:45 34.139116 -118.500940 92 3485ft 116kts
22-Sep-20 08:46 34.132408 -118.462776 103 3521ft 116kts
22-Sep-20 08:47 34.124621 -118.425040 104 3551ft 116kts
22-Sep-20 08:48 34.118060 -118.386877 95 3575ft 115kts
22-Sep-20 08:49 34.114867 -118.348140 89 3596ft 115kts
22-Sep-20 08:50 34.118338 -118.308717 79 3372ft 126kts
22-Sep-20 08:51 34.124542 -118.267935 78 2835ft 128kts
22-Sep-20 08:52 34.123017 -118.223998 99 1969ft 133kts
22-Sep-20 08:53 34.118388 -118.182081 98 1351ft 121kts
22-Sep-20 08:54 34.111250 -118.144489 104 997ft 111kts
22-Sep-20 08:55 34.105026 -118.110221 102 869ft 107kts
22-Sep-20 08:56 34.097968 -118.079636 107 847ft 104kts
22-Sep-20 08:57 34.088567 -118.052380 122 708ft 95kts
22-Sep-20 08:58 34.100258 -118.029840 102 764ft 86kts
22-Sep-20 08:59 34.085670 -118.035025 205 293ft 44kts
22-Sep-20 09:00 34.083057 -118.036006 99 289ft 0kts
22-Sep-20 09:01 34.084127 -118.035215 23 291ft 13kts
22-Sep-20 09:02 34.086875 -118.033189 89 296ft 2kts
22-Sep-20 09:03 34.086942 -118.033075 26 296ft 0kts

Navigation Log

Ident Type
Flight plan parsing failed, navigation log unavailable